Aktuální počasí v Česku a ve světě - METAR

Seznam meteostanic umístěných nejčasteji na letišti v ČR a ve světě

Vyhledat místa podle abecedy:
A B C D E F G H I J K L M N O P Q R S T U V W X Y Z

Filtrovat:

ID stanice:
a/nebo
Název místa (fulltext):
 
Místo (ID)Naposledy načteno 
Pardubice (Pardubice) 29.07.2021 08:00 UTC Zobrazit data
Místo: Pardubice
Teplota: 23 °C (pocitová: 22.9 °C)
Vítr: 5 m/s z(e) 260°
Počasí: skorojasno
Dohlednost: 20 km
Zákl. oblačnosti: 2/8 1050 m
Vlhkost: 57%
Pec pod Sněžkou (Pec p.Snez) 29.07.2021 08:00 UTC Zobrazit data
Místo: Pec pod Sněžkou
Teplota: 15 °C (pocitová: 11.8 °C)
Vítr: 5 m/s z(e) 190°
Počasí: skoro zataženo
Dohlednost: 30 km
Zákl. oblačnosti: 7/8 450 m
Vlhkost: 77%
Plzeň město - Mikulka (Plzen/Miku) 29.07.2021 08:00 UTC Zobrazit data
Místo: Plzeň město - Mikulka
Teplota: 21 °C (pocitová: 20.4 °C)
Vítr: 4 m/s z(e) 230°
Počasí: oblačno
Dohlednost: 60 km
Zákl. oblačnosti: 3/8 780 m
Vlhkost: 69%
Polom (Polom) 29.07.2021 08:00 UTC Zobrazit data
Místo: Polom
Teplota: 16 °C (pocitová: 14 °C)
Vítr: 3 m/s z(e) 220°
Počasí: skoro zataženo
Dohlednost: 12 km
Zákl. oblačnosti: 7/8 210 m
Vlhkost: 88%
Praha - Karlov (Praha/Kar) 29.07.2021 08:00 UTC Zobrazit data
Místo: Praha - Karlov
Teplota: 21 °C (pocitová: 19.8 °C)
Vítr: 7 m/s z(e) 260°
Počasí: skorojasno
Dohlednost: 35 km
Zákl. oblačnosti: 2/8 990 m
Vlhkost: 57%
Praha - Kbely (Praha/Kbe) 29.07.2021 08:00 UTC Zobrazit data
Místo: Praha - Kbely
Teplota: 21 °C (pocitová: 20 °C)
Vítr: 6 m/s z(e) 240°
Počasí: skorojasno
Dohlednost: 30 km
Zákl. oblačnosti: 2/8 750 m
Vlhkost: 69%
Praha - Libuš (Praha/Lib) 29.07.2021 08:00 UTC Zobrazit data
Místo: Praha - Libuš
Teplota: 21 °C (pocitová: 21 °C)
Vítr: 2 m/s z(e) 250°
Počasí: skorojasno
Dohlednost: 40 km
Zákl. oblačnosti: 1/8 780 m
Vlhkost: 64%
Praha - Ruzyně (Praha/Ru) 29.07.2021 08:00 UTC Zobrazit data
Místo: Praha - Ruzyně
Teplota: 21 °C (pocitová: 19.8 °C)
Vítr: 7 m/s z(e) 240°
Počasí: skorojasno
Dohlednost: 50 km
Zákl. oblačnosti: 2/8 990 m
Vlhkost: 57%
Přibyslav (Pribyslav) 29.07.2021 08:00 UTC Zobrazit data
Místo: Přibyslav
Teplota: 21 °C (pocitová: 20.2 °C)
Vítr: 5 m/s z(e) 260°
Počasí: skorojasno
Dohlednost: 35 km
Zákl. oblačnosti: 1/8 780 m
Vlhkost: 64%
Přimda (Primda) 29.07.2021 08:00 UTC Zobrazit data
Místo: Přimda
Teplota: 16 °C (pocitová: 13.5 °C)
Vítr: 4 m/s z(e) 260°
Počasí: oblačno
Dohlednost: 65 km
Zákl. oblačnosti: 3/8 360 m
Vlhkost: 83%
Pago Pago (NSTU) 29.07.2021 07:50 UTC Zobrazit METAR
NSTU 290750Z 12012KT 10SM FEW015 SCT100 26/25 A2997 RMK SLP151 T02620250
Palanga (EYPA) 29.07.2021 07:50 UTC Zobrazit METAR
EYPA 290750Z 24005KT 190V290 CAVOK 24/15 Q1007
Palermo (LICJ) 29.07.2021 07:50 UTC Zobrazit METAR
LICJ 290750Z 23007KT CAVOK 31/19 Q1015
Palma de Mallorca (LEPA) 29.07.2021 08:00 UTC Zobrazit METAR
LEPA 290800Z 05007G18KT 020V080 9999 FEW025 27/21 Q1015 NOSIG
Panama City (MPTO) 29.07.2021 03:00 UTC Zobrazit METAR
MPTO 290300Z 00000KT 9999 FEW018 27/24 Q1010 NOSIG
Paramaribo (SMZO) 28.07.2021 16:00 UTC Zobrazit METAR
SMZO 281600Z 12006KT 9999 SCT030 33/22 Q1013 NOSIG
Paris (LFPG) 29.07.2021 08:00 UTC Zobrazit METAR
LFPG 290800Z 25008KT 200V280 9999 SCT025 18/12 Q1015 NOSIG
Paro (VQPR) 29.07.2021 08:00 UTC Zobrazit METAR
VQPR 290800Z 14012KT 9999 SCT030 BKN080 27/13 Q1010
Phnom Penh (VDPP) 29.07.2021 04:00 UTC Zobrazit METAR
VDPP 290400Z 25011KT 210V280 9999 SCT075 33/24 Q1006
Plovdiv (LBPD) 27.07.2021 18:00 UTC Zobrazit METAR
LBPD 271800Z AUTO 10006KT 9999 FEW003 31/13 Q1016 NOSIG
Pohnpei I (PTPN) 29.07.2021 03:50 UTC Zobrazit METAR
PTPN 290350Z 36004KT 15SM BKN018 OVC300 31/25 A2978 RMK LAST
Ponta Delgada (LPPD) 29.07.2021 08:00 UTC Zobrazit METAR
LPPD 290800Z 02007KT 320V050 9999 FEW013 SCT018 21/19 Q1025
Pori (EFPO) 29.07.2021 07:50 UTC Zobrazit METAR
EFPO 290750Z AUTO 25006KT 6000 -SHRA OVC003 18/17 Q0996
Port Moresby (AYPY) 29.07.2021 04:00 UTC Zobrazit METAR
AYPY 290400Z 22010KT 9999 FEW015 SCT025 BKN040 29/24 Q1009
Port of Spain (TTPP) 29.07.2021 08:00 UTC Zobrazit METAR
TTPP 290800Z 12003KT 7000 -SHRA BKN014 BKN038 24/23 Q1014 TEMPO RA
Port Vila (NVVV) 29.07.2021 08:00 UTC Zobrazit METAR
NVVV 290800Z 18003KT 9999 FEW020 23/21 Q1014
Port-au-Prince (MTPP) 29.07.2021 07:59 UTC Zobrazit METAR
MTPP 290759Z AUTO 12013KT //// ////// 26/23 Q1013 A2992 NOSIG
Porto (LPPR) 29.07.2021 08:00 UTC Zobrazit METAR
LPPR 290800Z 22005KT 180V250 CAVOK 17/15 Q1014
Poznan (EPPO) 29.07.2021 08:00 UTC Zobrazit METAR
EPPO 290800Z 22009KT 9999 FEW022 22/16 Q1011
Prague (LKPR) 29.07.2021 08:00 UTC Zobrazit METAR
LKPR 290800Z 24015KT 9999 FEW033 21/13 Q1015 NOSIG
Praia (GVFM) Zatím nenačteno  
Pyongyang (ZKPY) Zatím nenačteno  
Reklama

Reklama


Newslettter

Počasí na Váš email

Emaily jsou bez reklamy a bez spamu



Odhlásit newsletter



Kontaktujte nás

Kontaktujte Slunečno.cz

Kontaktujte provozovatele Slunecno.cz

Další české internetové stránky (nejen) o počasí najdete v katalogu TOPlist - weby o počasí nebo vyhledejte na internetu, co jste tu na Počasí Slunečno Slunečnu zatím nenašli:
Přidat mezzi oblíbené stránkyPřidat Slunečno.cz do oblíbených | Nastavit jako HOMEPAGENastavit Slunečno.cz jako HOMEPAGE

Posunout stránku nahoru Posunout stránku nahoru Posunout stránku nahoru
Reklama